Terminal Aerodrome Forecast
Issued by NWS

Home | Current Version | Previous Version | Text Only | Print | Product List | Glossary On
Versions: 1 2 3 4 5 6 7 8 9 10 11 12 13 14 15 16 17 18 19 20 21 22 23 24 25 26 27 28 29 30 31 32
000
FTUS41 KBOX 171735
TAFHYA
TAF
KHYA 171735Z 1718/1818 22007KT P6SM FEW050
     FM172300 24006KT P6SM FEW250
     FM180800 VRB03KT P6SM SKC
     FM181300 31007KT P6SM SKC=

USA.gov is the U.S. government's official web portal to all federal, state and local government web resources and services.